Huvudsida
METAR-TAF:

METAR-TAF

Flygplatser :

Sarakhs, Iran

latitud: 36-30-04N, longitud: 061-03-54E, höjd: 288 m

Aktuellt väderrapport

Denna rapport gjordes för 32 minuter sedan, klockan 08:00 UTC
Vind 10 kt från ost/sydost
Temperatur 15°C
Fuktighet 67%
Tryck 1024 hPa
Sikt 10 km eller mer
Inga moln under 1 500 m eller inga cumulonimbus

METAR: OIMC 220800Z 11010KT CAVOK 15/09 Q1024

Tid: 12:02 (08:32 UTC)


TAF: saknas

Aktuella väderrapporter och prognoser från 4000 flygplatser (METAR- och TAF-rapporter).

De tillgängliga stationerna syns som gula och röda prickar på kartan.

För musen över prickarna för att se namnen på stationerna.

Klicka sedan för att få väderrapporter och prognoser.

För att ändra kartan: Klicka på de gröna knapparna med ett svart kors på för att zooma in; den gröna knappen med ett streck på för att zooma ut; eller på de gröna pilarna för angränsande kartor.


METAR-TAF: